sensor_id;sensor_type;location;lat;lon;timestamp;temperature;humidity
5930;DHT22;2990;48.746;9.236;2024-01-30T00:01:19;5.70;1.00
5930;DHT22;2990;48.746;9.236;2024-01-30T00:03:44;5.70;1.00
5930;DHT22;2990;48.746;9.236;2024-01-30T00:06:10;5.70;1.00
5930;DHT22;2990;48.746;9.236;2024-01-30T00:08:35;5.70;1.00
5930;DHT22;2990;48.746;9.236;2024-01-30T00:11:01;5.70;1.00
5930;DHT22;2990;48.746;9.236;2024-01-30T00:13:26;5.70;1.00
5930;DHT22;2990;48.746;9.236;2024-01-30T00:15:52;5.60;1.00
5930;DHT22;2990;48.746;9.236;2024-01-30T00:18:18;5.60;1.00
5930;DHT22;2990;48.746;9.236;2024-01-30T00:20:44;5.60;1.00
5930;DHT22;2990;48.746;9.236;2024-01-30T00:23:09;5.60;19.40
5930;DHT22;2990;48.746;9.236;2024-01-30T00:25:35;5.60;8.20
5930;DHT22;2990;48.746;9.236;2024-01-30T00:28:00;5.60;79.00
5930;DHT22;2990;48.746;9.236;2024-01-30T00:30:26;5.60;99.90
5930;DHT22;2990;48.746;9.236;2024-01-30T00:32:52;5.60;99.90
5930;DHT22;2990;48.746;9.236;2024-01-30T00:35:17;5.60;99.90
5930;DHT22;2990;48.746;9.236;2024-01-30T00:37:43;5.60;99.90
5930;DHT22;2990;48.746;9.236;2024-01-30T00:40:09;5.60;99.90
5930;DHT22;2990;48.746;9.236;2024-01-30T00:42:44;5.60;99.90
5930;DHT22;2990;48.746;9.236;2024-01-30T00:45:16;5.50;99.90
5930;DHT22;2990;48.746;9.236;2024-01-30T00:47:42;5.50;99.90
5930;DHT22;2990;48.746;9.236;2024-01-30T00:50:08;5.50;99.90
5930;DHT22;2990;48.746;9.236;2024-01-30T00:52:33;5.50;99.90
5930;DHT22;2990;48.746;9.236;2024-01-30T00:55:00;5.50;99.90
5930;DHT22;2990;48.746;9.236;2024-01-30T00:57:25;5.40;99.90
5930;DHT22;2990;48.746;9.236;2024-01-30T00:59:52;5.40;99.90
5930;DHT22;2990;48.746;9.236;2024-01-30T01:02:17;5.40;99.90
5930;DHT22;2990;48.746;9.236;2024-01-30T01:04:43;5.40;1.00
5930;DHT22;2990;48.746;9.236;2024-01-30T01:07:10;5.30;99.90
5930;DHT22;2990;48.746;9.236;2024-01-30T01:09:36;5.30;1.00
5930;DHT22;2990;48.746;9.236;2024-01-30T01:12:02;5.30;1.00
5930;DHT22;2990;48.746;9.236;2024-01-30T01:14:27;5.30;1.00
5930;DHT22;2990;48.746;9.236;2024-01-30T01:16:53;5.20;1.00
5930;DHT22;2990;48.746;9.236;2024-01-30T01:19:18;5.20;1.00
5930;DHT22;2990;48.746;9.236;2024-01-30T01:21:44;5.10;1.00
5930;DHT22;2990;48.746;9.236;2024-01-30T01:24:09;5.00;40.90
5930;DHT22;2990;48.746;9.236;2024-01-30T01:26:35;4.90;99.90
5930;DHT22;2990;48.746;9.236;2024-01-30T01:29:00;4.90;99.90
5930;DHT22;2990;48.746;9.236;2024-01-30T01:31:26;4.80;1.00
5930;DHT22;2990;48.746;9.236;2024-01-30T01:33:55;4.70;1.00
5930;DHT22;2990;48.746;9.236;2024-01-30T01:36:20;4.70;40.70
5930;DHT22;2990;48.746;9.236;2024-01-30T01:38:46;4.60;99.90
5930;DHT22;2990;48.746;9.236;2024-01-30T01:41:12;4.50;99.90
5930;DHT22;2990;48.746;9.236;2024-01-30T01:43:37;4.50;1.00
5930;DHT22;2990;48.746;9.236;2024-01-30T01:46:05;4.50;1.00
5930;DHT22;2990;48.746;9.236;2024-01-30T01:48:30;4.40;99.90
5930;DHT22;2990;48.746;9.236;2024-01-30T01:50:56;4.40;99.90
5930;DHT22;2990;48.746;9.236;2024-01-30T01:53:22;4.40;99.90
5930;DHT22;2990;48.746;9.236;2024-01-30T01:55:48;4.40;99.90
5930;DHT22;2990;48.746;9.236;2024-01-30T01:58:14;4.30;99.90
5930;DHT22;2990;48.746;9.236;2024-01-30T02:00:40;4.20;1.00
5930;DHT22;2990;48.746;9.236;2024-01-30T02:03:09;4.20;80.70
5930;DHT22;2990;48.746;9.236;2024-01-30T02:05:36;4.20;1.00
5930;DHT22;2990;48.746;9.236;2024-01-30T02:08:01;4.10;1.00
5930;DHT22;2990;48.746;9.236;2024-01-30T02:10:27;4.00;99.90
5930;DHT22;2990;48.746;9.236;2024-01-30T02:12:53;4.00;99.90
5930;DHT22;2990;48.746;9.236;2024-01-30T02:15:18;3.90;1.00
5930;DHT22;2990;48.746;9.236;2024-01-30T02:17:44;3.90;1.00
5930;DHT22;2990;48.746;9.236;2024-01-30T02:20:10;3.80;99.90
5930;DHT22;2990;48.746;9.236;2024-01-30T02:22:36;3.80;1.00
5930;DHT22;2990;48.746;9.236;2024-01-30T02:25:03;3.70;99.90
5930;DHT22;2990;48.746;9.236;2024-01-30T02:27:28;3.70;1.00
5930;DHT22;2990;48.746;9.236;2024-01-30T02:29:54;3.60;77.10
5930;DHT22;2990;48.746;9.236;2024-01-30T02:32:19;3.50;1.00
5930;DHT22;2990;48.746;9.236;2024-01-30T02:34:45;3.50;1.00
5930;DHT22;2990;48.746;9.236;2024-01-30T02:37:10;3.40;1.00
5930;DHT22;2990;48.746;9.236;2024-01-30T02:39:36;3.40;99.90
5930;DHT22;2990;48.746;9.236;2024-01-30T02:42:01;3.30;1.00
5930;DHT22;2990;48.746;9.236;2024-01-30T02:44:27;3.30;99.90
5930;DHT22;2990;48.746;9.236;2024-01-30T02:46:52;3.30;1.00
5930;DHT22;2990;48.746;9.236;2024-01-30T02:49:19;3.30;1.00
5930;DHT22;2990;48.746;9.236;2024-01-30T02:51:45;3.20;1.00
5930;DHT22;2990;48.746;9.236;2024-01-30T02:54:10;3.20;99.90
5930;DHT22;2990;48.746;9.236;2024-01-30T02:56:36;3.20;1.00
5930;DHT22;2990;48.746;9.236;2024-01-30T02:59:01;3.10;1.00
5930;DHT22;2990;48.746;9.236;2024-01-30T03:01:27;3.10;99.90
5930;DHT22;2990;48.746;9.236;2024-01-30T03:03:52;3.00;99.90
5930;DHT22;2990;48.746;9.236;2024-01-30T03:06:18;3.00;99.90
5930;DHT22;2990;48.746;9.236;2024-01-30T03:08:45;3.00;1.00
5930;DHT22;2990;48.746;9.236;2024-01-30T03:11:11;3.00;1.00
5930;DHT22;2990;48.746;9.236;2024-01-30T03:13:36;3.00;1.00
5930;DHT22;2990;48.746;9.236;2024-01-30T03:16:02;3.00;1.00
5930;DHT22;2990;48.746;9.236;2024-01-30T03:18:28;2.90;1.00
5930;DHT22;2990;48.746;9.236;2024-01-30T03:20:53;2.90;1.00
5930;DHT22;2990;48.746;9.236;2024-01-30T03:23:19;2.90;1.00
5930;DHT22;2990;48.746;9.236;2024-01-30T03:25:44;2.90;1.00
5930;DHT22;2990;48.746;9.236;2024-01-30T03:28:10;2.90;1.00
5930;DHT22;2990;48.746;9.236;2024-01-30T03:30:35;2.80;18.60
5930;DHT22;2990;48.746;9.236;2024-01-30T03:33:01;2.80;38.50
5930;DHT22;2990;48.746;9.236;2024-01-30T03:35:26;2.80;84.70
5930;DHT22;2990;48.746;9.236;2024-01-30T03:37:52;2.80;99.90
5930;DHT22;2990;48.746;9.236;2024-01-30T03:40:17;2.70;99.90
5930;DHT22;2990;48.746;9.236;2024-01-30T03:42:43;2.50;99.90
5930;DHT22;2990;48.746;9.236;2024-01-30T03:45:09;2.70;99.90
5930;DHT22;2990;48.746;9.236;2024-01-30T03:47:34;2.70;99.90
5930;DHT22;2990;48.746;9.236;2024-01-30T03:50:00;2.60;99.90
5930;DHT22;2990;48.746;9.236;2024-01-30T03:52:25;2.60;99.90
5930;DHT22;2990;48.746;9.236;2024-01-30T03:54:51;2.60;99.90
5930;DHT22;2990;48.746;9.236;2024-01-30T03:57:16;2.60;99.90
5930;DHT22;2990;48.746;9.236;2024-01-30T03:59:42;2.60;99.90
5930;DHT22;2990;48.746;9.236;2024-01-30T04:02:09;2.60;99.90
5930;DHT22;2990;48.746;9.236;2024-01-30T04:04:35;2.60;99.90
5930;DHT22;2990;48.746;9.236;2024-01-30T04:07:00;2.60;99.90
5930;DHT22;2990;48.746;9.236;2024-01-30T04:09:26;2.60;99.90
5930;DHT22;2990;48.746;9.236;2024-01-30T04:11:54;2.60;99.90
5930;DHT22;2990;48.746;9.236;2024-01-30T04:14:19;2.60;99.90
5930;DHT22;2990;48.746;9.236;2024-01-30T04:16:45;2.50;99.90
5930;DHT22;2990;48.746;9.236;2024-01-30T04:19:10;2.40;99.90
5930;DHT22;2990;48.746;9.236;2024-01-30T04:21:36;2.40;99.90
5930;DHT22;2990;48.746;9.236;2024-01-30T04:24:01;2.30;1.00
5930;DHT22;2990;48.746;9.236;2024-01-30T04:26:27;2.30;1.00
5930;DHT22;2990;48.746;9.236;2024-01-30T04:28:52;2.30;1.00
5930;DHT22;2990;48.746;9.236;2024-01-30T04:31:18;2.30;1.00
5930;DHT22;2990;48.746;9.236;2024-01-30T04:33:44;2.30;1.00
5930;DHT22;2990;48.746;9.236;2024-01-30T04:36:09;2.30;1.00
5930;DHT22;2990;48.746;9.236;2024-01-30T04:38:38;2.30;1.00
5930;DHT22;2990;48.746;9.236;2024-01-30T04:41:04;2.30;1.00
5930;DHT22;2990;48.746;9.236;2024-01-30T04:43:30;2.30;1.00
5930;DHT22;2990;48.746;9.236;2024-01-30T04:45:56;2.20;1.00
5930;DHT22;2990;48.746;9.236;2024-01-30T04:48:21;2.20;1.00
5930;DHT22;2990;48.746;9.236;2024-01-30T04:50:47;2.20;1.00
5930;DHT22;2990;48.746;9.236;2024-01-30T04:53:12;2.20;1.00
5930;DHT22;2990;48.746;9.236;2024-01-30T04:55:38;2.10;1.00
5930;DHT22;2990;48.746;9.236;2024-01-30T04:58:04;2.10;1.00
5930;DHT22;2990;48.746;9.236;2024-01-30T05:00:29;2.10;1.00
5930;DHT22;2990;48.746;9.236;2024-01-30T05:02:55;2.00;1.00
5930;DHT22;2990;48.746;9.236;2024-01-30T05:05:21;2.00;1.00
5930;DHT22;2990;48.746;9.236;2024-01-30T05:07:47;2.00;1.00
5930;DHT22;2990;48.746;9.236;2024-01-30T05:10:13;1.90;1.00
5930;DHT22;2990;48.746;9.236;2024-01-30T05:12:39;1.90;1.00
5930;DHT22;2990;48.746;9.236;2024-01-30T05:15:05;1.90;1.00
5930;DHT22;2990;48.746;9.236;2024-01-30T05:17:30;1.90;1.00
5930;DHT22;2990;48.746;9.236;2024-01-30T05:19:56;1.90;1.00
5930;DHT22;2990;48.746;9.236;2024-01-30T05:22:21;1.80;1.00
5930;DHT22;2990;48.746;9.236;2024-01-30T05:24:47;1.80;1.00
5930;DHT22;2990;48.746;9.236;2024-01-30T05:27:12;1.80;1.00
5930;DHT22;2990;48.746;9.236;2024-01-30T05:29:39;1.70;1.00
5930;DHT22;2990;48.746;9.236;2024-01-30T05:32:06;1.70;1.00
5930;DHT22;2990;48.746;9.236;2024-01-30T05:34:32;1.70;1.00
5930;DHT22;2990;48.746;9.236;2024-01-30T05:36:57;1.70;1.00
5930;DHT22;2990;48.746;9.236;2024-01-30T05:39:23;1.70;1.00
5930;DHT22;2990;48.746;9.236;2024-01-30T05:41:48;1.70;1.00
5930;DHT22;2990;48.746;9.236;2024-01-30T05:44:14;1.80;1.00
5930;DHT22;2990;48.746;9.236;2024-01-30T05:46:39;1.80;1.00
5930;DHT22;2990;48.746;9.236;2024-01-30T05:49:05;1.80;1.00
5930;DHT22;2990;48.746;9.236;2024-01-30T05:51:31;1.80;1.00
5930;DHT22;2990;48.746;9.236;2024-01-30T05:53:57;1.80;1.00
5930;DHT22;2990;48.746;9.236;2024-01-30T05:56:22;1.80;1.00
5930;DHT22;2990;48.746;9.236;2024-01-30T05:58:48;1.90;1.00
5930;DHT22;2990;48.746;9.236;2024-01-30T06:01:15;1.90;1.00
5930;DHT22;2990;48.746;9.236;2024-01-30T06:03:41;1.90;1.00
5930;DHT22;2990;48.746;9.236;2024-01-30T06:06:08;1.90;1.00
5930;DHT22;2990;48.746;9.236;2024-01-30T06:08:34;1.90;1.00
5930;DHT22;2990;48.746;9.236;2024-01-30T06:11:00;1.90;1.00
5930;DHT22;2990;48.746;9.236;2024-01-30T06:13:26;2.00;1.00
5930;DHT22;2990;48.746;9.236;2024-01-30T06:15:51;2.00;1.00
5930;DHT22;2990;48.746;9.236;2024-01-30T06:18:17;2.00;1.00
5930;DHT22;2990;48.746;9.236;2024-01-30T06:20:43;2.00;1.00
5930;DHT22;2990;48.746;9.236;2024-01-30T06:23:08;2.00;1.00
5930;DHT22;2990;48.746;9.236;2024-01-30T06:25:34;2.00;1.00
5930;DHT22;2990;48.746;9.236;2024-01-30T06:27:59;2.00;1.00
5930;DHT22;2990;48.746;9.236;2024-01-30T06:30:25;2.00;1.00
5930;DHT22;2990;48.746;9.236;2024-01-30T06:32:50;2.00;1.00
5930;DHT22;2990;48.746;9.236;2024-01-30T06:35:16;2.00;1.00
5930;DHT22;2990;48.746;9.236;2024-01-30T06:37:43;2.00;1.00
5930;DHT22;2990;48.746;9.236;2024-01-30T06:40:08;2.00;1.00
5930;DHT22;2990;48.746;9.236;2024-01-30T06:42:34;2.10;1.00
5930;DHT22;2990;48.746;9.236;2024-01-30T06:45:00;2.10;1.00
5930;DHT22;2990;48.746;9.236;2024-01-30T06:47:25;2.20;1.00
5930;DHT22;2990;48.746;9.236;2024-01-30T06:49:51;2.30;1.00
5930;DHT22;2990;48.746;9.236;2024-01-30T06:52:16;2.30;1.00
5930;DHT22;2990;48.746;9.236;2024-01-30T06:54:42;2.30;1.00
5930;DHT22;2990;48.746;9.236;2024-01-30T06:57:07;2.30;1.00
5930;DHT22;2990;48.746;9.236;2024-01-30T06:59:37;2.20;1.00
5930;DHT22;2990;48.746;9.236;2024-01-30T07:02:09;2.10;1.00
5930;DHT22;2990;48.746;9.236;2024-01-30T07:04:34;2.10;1.00
5930;DHT22;2990;48.746;9.236;2024-01-30T07:07:00;2.10;1.00
5930;DHT22;2990;48.746;9.236;2024-01-30T07:09:26;2.10;1.00
5930;DHT22;2990;48.746;9.236;2024-01-30T07:11:53;2.10;1.00
5930;DHT22;2990;48.746;9.236;2024-01-30T07:14:18;2.10;1.00
5930;DHT22;2990;48.746;9.236;2024-01-30T07:16:44;2.00;1.00
5930;DHT22;2990;48.746;9.236;2024-01-30T07:19:09;2.00;1.00
5930;DHT22;2990;48.746;9.236;2024-01-30T07:21:35;2.00;1.00
5930;DHT22;2990;48.746;9.236;2024-01-30T07:24:00;1.90;1.00
5930;DHT22;2990;48.746;9.236;2024-01-30T07:26:26;1.90;1.00
5930;DHT22;2990;48.746;9.236;2024-01-30T07:28:51;2.00;1.00
5930;DHT22;2990;48.746;9.236;2024-01-30T07:31:17;2.00;1.00
5930;DHT22;2990;48.746;9.236;2024-01-30T07:33:46;1.90;1.00
5930;DHT22;2990;48.746;9.236;2024-01-30T07:36:11;2.00;1.00
5930;DHT22;2990;48.746;9.236;2024-01-30T07:38:37;1.90;1.00
5930;DHT22;2990;48.746;9.236;2024-01-30T07:41:02;1.90;1.00
5930;DHT22;2990;48.746;9.236;2024-01-30T07:43:28;1.90;1.00
5930;DHT22;2990;48.746;9.236;2024-01-30T07:45:53;1.90;1.00
5930;DHT22;2990;48.746;9.236;2024-01-30T07:48:19;1.80;1.00
5930;DHT22;2990;48.746;9.236;2024-01-30T07:50:44;1.80;1.00
5930;DHT22;2990;48.746;9.236;2024-01-30T07:53:10;1.90;1.00
5930;DHT22;2990;48.746;9.236;2024-01-30T07:55:35;1.90;1.00
5930;DHT22;2990;48.746;9.236;2024-01-30T07:58:01;1.90;1.00
5930;DHT22;2990;48.746;9.236;2024-01-30T08:00:27;2.00;1.00
5930;DHT22;2990;48.746;9.236;2024-01-30T08:02:54;2.10;1.00
5930;DHT22;2990;48.746;9.236;2024-01-30T08:05:20;2.20;1.00
5930;DHT22;2990;48.746;9.236;2024-01-30T08:07:48;2.30;1.00
5930;DHT22;2990;48.746;9.236;2024-01-30T08:10:13;2.30;1.00
5930;DHT22;2990;48.746;9.236;2024-01-30T08:12:39;2.50;99.90
5930;DHT22;2990;48.746;9.236;2024-01-30T08:15:05;2.60;99.90
5930;DHT22;2990;48.746;9.236;2024-01-30T08:17:31;2.70;99.90
5930;DHT22;2990;48.746;9.236;2024-01-30T08:19:56;2.80;54.60
5930;DHT22;2990;48.746;9.236;2024-01-30T08:22:22;2.90;1.00
5930;DHT22;2990;48.746;9.236;2024-01-30T08:24:48;3.00;1.00
5930;DHT22;2990;48.746;9.236;2024-01-30T08:27:13;3.20;99.90
5930;DHT22;2990;48.746;9.236;2024-01-30T08:29:39;3.30;1.00
5930;DHT22;2990;48.746;9.236;2024-01-30T08:32:05;3.50;99.90
5930;DHT22;2990;48.746;9.236;2024-01-30T08:34:31;3.70;1.00
5930;DHT22;2990;48.746;9.236;2024-01-30T08:36:57;3.90;1.00
5930;DHT22;2990;48.746;9.236;2024-01-30T08:39:22;4.20;99.90
5930;DHT22;2990;48.746;9.236;2024-01-30T08:41:48;4.50;99.90
5930;DHT22;2990;48.746;9.236;2024-01-30T08:44:13;4.70;99.90
5930;DHT22;2990;48.746;9.236;2024-01-30T08:46:39;4.90;1.00
5930;DHT22;2990;48.746;9.236;2024-01-30T08:49:04;5.20;1.00
5930;DHT22;2990;48.746;9.236;2024-01-30T08:51:30;5.40;99.90
5930;DHT22;2990;48.746;9.236;2024-01-30T08:53:56;5.60;1.00
5930;DHT22;2990;48.746;9.236;2024-01-30T08:56:22;5.90;99.90
5930;DHT22;2990;48.746;9.236;2024-01-30T08:58:47;6.10;1.00
5930;DHT22;2990;48.746;9.236;2024-01-30T09:01:13;6.40;1.00
5930;DHT22;2990;48.746;9.236;2024-01-30T09:03:39;6.50;1.00
5930;DHT22;2990;48.746;9.236;2024-01-30T09:06:09;6.60;99.90
5930;DHT22;2990;48.746;9.236;2024-01-30T09:08:35;6.70;99.90
5930;DHT22;2990;48.746;9.236;2024-01-30T09:11:01;6.70;99.90
5930;DHT22;2990;48.746;9.236;2024-01-30T09:13:26;6.80;99.90
5930;DHT22;2990;48.746;9.236;2024-01-30T09:15:52;6.80;99.90
5930;DHT22;2990;48.746;9.236;2024-01-30T09:18:18;6.90;99.90
5930;DHT22;2990;48.746;9.236;2024-01-30T09:20:44;6.90;99.90
5930;DHT22;2990;48.746;9.236;2024-01-30T09:23:12;7.00;99.90
5930;DHT22;2990;48.746;9.236;2024-01-30T09:25:38;7.10;99.90
5930;DHT22;2990;48.746;9.236;2024-01-30T09:28:04;7.30;99.90
5930;DHT22;2990;48.746;9.236;2024-01-30T09:30:30;7.40;23.30
5930;DHT22;2990;48.746;9.236;2024-01-30T09:32:55;7.50;25.10
5930;DHT22;2990;48.746;9.236;2024-01-30T09:35:21;7.60;1.00
5930;DHT22;2990;48.746;9.236;2024-01-30T09:37:46;7.70;1.00
5930;DHT22;2990;48.746;9.236;2024-01-30T09:40:12;7.90;1.00
5930;DHT22;2990;48.746;9.236;2024-01-30T09:42:38;8.20;1.00
5930;DHT22;2990;48.746;9.236;2024-01-30T09:45:05;8.40;1.00
5930;DHT22;2990;48.746;9.236;2024-01-30T09:47:32;8.70;1.00
5930;DHT22;2990;48.746;9.236;2024-01-30T09:49:58;9.00;1.00
5930;DHT22;2990;48.746;9.236;2024-01-30T09:52:24;9.20;1.00
5930;DHT22;2990;48.746;9.236;2024-01-30T09:54:51;9.30;1.00
5930;DHT22;2990;48.746;9.236;2024-01-30T09:57:17;9.30;1.00
5930;DHT22;2990;48.746;9.236;2024-01-30T09:59:43;9.20;1.00
5930;DHT22;2990;48.746;9.236;2024-01-30T10:02:09;9.20;1.00
5930;DHT22;2990;48.746;9.236;2024-01-30T10:04:35;9.20;1.00
5930;DHT22;2990;48.746;9.236;2024-01-30T10:07:03;9.30;1.00
5930;DHT22;2990;48.746;9.236;2024-01-30T10:09:32;9.30;1.00
5930;DHT22;2990;48.746;9.236;2024-01-30T10:11:58;9.40;1.00
5930;DHT22;2990;48.746;9.236;2024-01-30T10:14:24;9.40;1.00
5930;DHT22;2990;48.746;9.236;2024-01-30T10:16:50;9.50;1.00
5930;DHT22;2990;48.746;9.236;2024-01-30T10:19:16;9.60;1.00
5930;DHT22;2990;48.746;9.236;2024-01-30T10:21:41;9.80;1.00
5930;DHT22;2990;48.746;9.236;2024-01-30T10:24:07;9.90;1.00
5930;DHT22;2990;48.746;9.236;2024-01-30T10:26:32;10.00;1.00
5930;DHT22;2990;48.746;9.236;2024-01-30T10:28:59;10.00;1.00
5930;DHT22;2990;48.746;9.236;2024-01-30T10:31:25;10.00;1.00
5930;DHT22;2990;48.746;9.236;2024-01-30T10:33:51;10.00;1.00
5930;DHT22;2990;48.746;9.236;2024-01-30T10:36:17;10.00;1.00
5930;DHT22;2990;48.746;9.236;2024-01-30T10:38:43;10.00;1.00
5930;DHT22;2990;48.746;9.236;2024-01-30T10:41:12;10.10;1.00
5930;DHT22;2990;48.746;9.236;2024-01-30T10:43:47;10.20;1.00
5930;DHT22;2990;48.746;9.236;2024-01-30T10:46:19;10.20;1.00
5930;DHT22;2990;48.746;9.236;2024-01-30T10:48:50;10.20;1.00
5930;DHT22;2990;48.746;9.236;2024-01-30T10:51:16;10.30;1.00
5930;DHT22;2990;48.746;9.236;2024-01-30T10:53:46;10.30;1.00
5930;DHT22;2990;48.746;9.236;2024-01-30T10:56:12;10.40;1.00
5930;DHT22;2990;48.746;9.236;2024-01-30T10:58:39;10.40;1.00
5930;DHT22;2990;48.746;9.236;2024-01-30T11:01:05;10.50;1.00
5930;DHT22;2990;48.746;9.236;2024-01-30T11:03:32;10.60;1.00
5930;DHT22;2990;48.746;9.236;2024-01-30T11:06:00;10.60;1.00
5930;DHT22;2990;48.746;9.236;2024-01-30T11:08:27;10.60;1.00
5930;DHT22;2990;48.746;9.236;2024-01-30T11:10:57;10.70;1.00
5930;DHT22;2990;48.746;9.236;2024-01-30T11:13:27;10.70;1.00
5930;DHT22;2990;48.746;9.236;2024-01-30T11:15:53;10.80;1.00
5930;DHT22;2990;48.746;9.236;2024-01-30T11:18:25;10.80;1.00
5930;DHT22;2990;48.746;9.236;2024-01-30T11:20:51;10.90;1.00
5930;DHT22;2990;48.746;9.236;2024-01-30T11:23:17;10.90;1.00
5930;DHT22;2990;48.746;9.236;2024-01-30T11:25:44;11.00;1.00
5930;DHT22;2990;48.746;9.236;2024-01-30T11:28:16;11.00;1.00
5930;DHT22;2990;48.746;9.236;2024-01-30T11:30:42;11.00;99.90
5930;DHT22;2990;48.746;9.236;2024-01-30T11:33:12;11.00;99.90
5930;DHT22;2990;48.746;9.236;2024-01-30T11:35:42;11.00;99.90
5930;DHT22;2990;48.746;9.236;2024-01-30T11:38:15;11.00;1.00
5930;DHT22;2990;48.746;9.236;2024-01-30T11:40:41;11.00;99.90
5930;DHT22;2990;48.746;9.236;2024-01-30T11:43:09;11.10;99.90
5930;DHT22;2990;48.746;9.236;2024-01-30T11:45:35;11.10;99.90
5930;DHT22;2990;48.746;9.236;2024-01-30T11:48:01;11.10;1.00
5930;DHT22;2990;48.746;9.236;2024-01-30T11:50:32;11.10;99.90
5930;DHT22;2990;48.746;9.236;2024-01-30T11:52:59;11.10;1.00
5930;DHT22;2990;48.746;9.236;2024-01-30T11:55:25;11.20;1.00
5930;DHT22;2990;48.746;9.236;2024-01-30T11:57:55;11.20;99.90
5930;DHT22;2990;48.746;9.236;2024-01-30T12:00:20;11.20;99.90
5930;DHT22;2990;48.746;9.236;2024-01-30T12:02:50;11.20;99.90
5930;DHT22;2990;48.746;9.236;2024-01-30T12:05:16;11.20;99.90
5930;DHT22;2990;48.746;9.236;2024-01-30T12:07:44;11.20;99.90
5930;DHT22;2990;48.746;9.236;2024-01-30T12:10:12;11.20;99.90
5930;DHT22;2990;48.746;9.236;2024-01-30T12:12:41;11.30;99.90
5930;DHT22;2990;48.746;9.236;2024-01-30T12:15:07;11.30;99.90
5930;DHT22;2990;48.746;9.236;2024-01-30T12:17:34;11.20;99.90
5930;DHT22;2990;48.746;9.236;2024-01-30T12:22:42;11.30;99.90
5930;DHT22;2990;48.746;9.236;2024-01-30T12:25:12;11.30;99.90
5930;DHT22;2990;48.746;9.236;2024-01-30T12:27:39;11.30;99.90
5930;DHT22;2990;48.746;9.236;2024-01-30T12:30:06;11.40;99.90
5930;DHT22;2990;48.746;9.236;2024-01-30T12:32:35;11.50;99.90
5930;DHT22;2990;48.746;9.236;2024-01-30T12:35:01;11.50;99.90
5930;DHT22;2990;48.746;9.236;2024-01-30T12:37:27;11.60;99.90
5930;DHT22;2990;48.746;9.236;2024-01-30T12:39:52;11.70;99.90
5930;DHT22;2990;48.746;9.236;2024-01-30T12:42:20;11.70;99.90
5930;DHT22;2990;48.746;9.236;2024-01-30T12:44:47;11.70;99.90
5930;DHT22;2990;48.746;9.236;2024-01-30T12:47:12;11.60;99.90
5930;DHT22;2990;48.746;9.236;2024-01-30T12:49:38;11.70;99.90
5930;DHT22;2990;48.746;9.236;2024-01-30T12:52:04;11.70;99.90
5930;DHT22;2990;48.746;9.236;2024-01-30T12:54:30;11.80;99.90
5930;DHT22;2990;48.746;9.236;2024-01-30T12:56:55;11.80;99.90
5930;DHT22;2990;48.746;9.236;2024-01-30T12:59:21;11.90;99.90
5930;DHT22;2990;48.746;9.236;2024-01-30T13:01:47;11.90;99.90
5930;DHT22;2990;48.746;9.236;2024-01-30T13:04:12;12.00;99.90
5930;DHT22;2990;48.746;9.236;2024-01-30T13:06:38;12.10;99.90
5930;DHT22;2990;48.746;9.236;2024-01-30T13:09:03;12.30;99.90
5930;DHT22;2990;48.746;9.236;2024-01-30T13:11:31;12.30;99.90
5930;DHT22;2990;48.746;9.236;2024-01-30T13:13:57;12.30;99.90
5930;DHT22;2990;48.746;9.236;2024-01-30T13:16:22;12.40;99.90
5930;DHT22;2990;48.746;9.236;2024-01-30T13:18:48;12.50;99.90
5930;DHT22;2990;48.746;9.236;2024-01-30T13:21:14;12.70;99.90
5930;DHT22;2990;48.746;9.236;2024-01-30T13:23:39;12.90;99.90
5930;DHT22;2990;48.746;9.236;2024-01-30T13:26:05;13.00;99.90
5930;DHT22;2990;48.746;9.236;2024-01-30T13:28:31;13.20;99.90
5930;DHT22;2990;48.746;9.236;2024-01-30T13:30:57;13.30;99.90
5930;DHT22;2990;48.746;9.236;2024-01-30T13:33:23;13.40;99.90
5930;DHT22;2990;48.746;9.236;2024-01-30T13:35:48;13.50;99.90
5930;DHT22;2990;48.746;9.236;2024-01-30T13:38:14;13.60;99.90
5930;DHT22;2990;48.746;9.236;2024-01-30T13:40:40;13.50;99.90
5930;DHT22;2990;48.746;9.236;2024-01-30T13:43:06;13.40;99.90
5930;DHT22;2990;48.746;9.236;2024-01-30T13:45:31;13.30;99.90
5930;DHT22;2990;48.746;9.236;2024-01-30T13:47:57;13.30;99.90
5930;DHT22;2990;48.746;9.236;2024-01-30T13:50:24;13.20;99.90
5930;DHT22;2990;48.746;9.236;2024-01-30T13:52:50;13.10;99.90
5930;DHT22;2990;48.746;9.236;2024-01-30T13:55:15;13.10;99.90
5930;DHT22;2990;48.746;9.236;2024-01-30T13:57:41;13.00;99.90
5930;DHT22;2990;48.746;9.236;2024-01-30T14:00:07;12.90;99.90
5930;DHT22;2990;48.746;9.236;2024-01-30T14:02:33;12.90;99.90
5930;DHT22;2990;48.746;9.236;2024-01-30T14:04:58;12.90;99.90
5930;DHT22;2990;48.746;9.236;2024-01-30T14:07:24;12.90;99.90
5930;DHT22;2990;48.746;9.236;2024-01-30T14:09:50;12.80;99.90
5930;DHT22;2990;48.746;9.236;2024-01-30T14:12:15;12.80;99.90
5930;DHT22;2990;48.746;9.236;2024-01-30T14:14:41;12.70;99.90
5930;DHT22;2990;48.746;9.236;2024-01-30T14:17:07;12.60;99.90
5930;DHT22;2990;48.746;9.236;2024-01-30T14:19:35;12.50;99.90
5930;DHT22;2990;48.746;9.236;2024-01-30T14:22:01;12.40;99.90
5930;DHT22;2990;48.746;9.236;2024-01-30T14:24:27;12.30;99.90
5930;DHT22;2990;48.746;9.236;2024-01-30T14:26:53;12.20;1.00
5930;DHT22;2990;48.746;9.236;2024-01-30T14:29:18;12.10;1.00
5930;DHT22;2990;48.746;9.236;2024-01-30T14:31:44;12.00;1.00
5930;DHT22;2990;48.746;9.236;2024-01-30T14:34:10;11.90;1.00
5930;DHT22;2990;48.746;9.236;2024-01-30T14:36:37;11.80;1.00
5930;DHT22;2990;48.746;9.236;2024-01-30T14:39:02;11.70;1.00
5930;DHT22;2990;48.746;9.236;2024-01-30T14:41:29;11.60;1.00
5930;DHT22;2990;48.746;9.236;2024-01-30T14:43:55;11.60;1.00
5930;DHT22;2990;48.746;9.236;2024-01-30T14:46:21;11.50;1.00
5930;DHT22;2990;48.746;9.236;2024-01-30T14:48:47;11.40;1.00
5930;DHT22;2990;48.746;9.236;2024-01-30T14:51:13;11.40;1.00
5930;DHT22;2990;48.746;9.236;2024-01-30T14:53:39;11.30;1.00
5930;DHT22;2990;48.746;9.236;2024-01-30T14:56:05;11.30;1.00
5930;DHT22;2990;48.746;9.236;2024-01-30T14:58:31;11.20;1.00
5930;DHT22;2990;48.746;9.236;2024-01-30T15:00:57;11.20;1.00
5930;DHT22;2990;48.746;9.236;2024-01-30T15:03:22;11.10;1.00
5930;DHT22;2990;48.746;9.236;2024-01-30T15:05:48;11.10;1.00
5930;DHT22;2990;48.746;9.236;2024-01-30T15:08:16;11.00;1.00
5930;DHT22;2990;48.746;9.236;2024-01-30T15:10:42;11.00;1.00
5930;DHT22;2990;48.746;9.236;2024-01-30T15:13:08;10.90;1.00
5930;DHT22;2990;48.746;9.236;2024-01-30T15:15:33;10.80;1.00
5930;DHT22;2990;48.746;9.236;2024-01-30T15:17:59;10.80;1.00
5930;DHT22;2990;48.746;9.236;2024-01-30T15:20:25;10.70;1.00
5930;DHT22;2990;48.746;9.236;2024-01-30T15:22:50;10.70;1.00
5930;DHT22;2990;48.746;9.236;2024-01-30T15:25:16;10.60;1.00
5930;DHT22;2990;48.746;9.236;2024-01-30T15:27:41;10.60;1.00
5930;DHT22;2990;48.746;9.236;2024-01-30T15:30:07;10.60;1.00
5930;DHT22;2990;48.746;9.236;2024-01-30T15:32:33;10.60;1.00
5930;DHT22;2990;48.746;9.236;2024-01-30T15:35:00;10.40;1.00
5930;DHT22;2990;48.746;9.236;2024-01-30T15:37:28;10.40;1.00
5930;DHT22;2990;48.746;9.236;2024-01-30T15:39:54;10.20;1.00
5930;DHT22;2990;48.746;9.236;2024-01-30T15:42:19;10.20;1.00
5930;DHT22;2990;48.746;9.236;2024-01-30T15:44:45;10.10;1.00
5930;DHT22;2990;48.746;9.236;2024-01-30T15:47:11;10.00;1.00
5930;DHT22;2990;48.746;9.236;2024-01-30T15:49:36;9.90;1.00
5930;DHT22;2990;48.746;9.236;2024-01-30T15:52:02;9.80;1.00
5930;DHT22;2990;48.746;9.236;2024-01-30T15:54:27;9.80;1.00
5930;DHT22;2990;48.746;9.236;2024-01-30T15:56:53;9.70;1.00
5930;DHT22;2990;48.746;9.236;2024-01-30T15:59:18;9.60;1.00
5930;DHT22;2990;48.746;9.236;2024-01-30T16:01:44;9.60;1.00
5930;DHT22;2990;48.746;9.236;2024-01-30T16:04:17;9.50;1.00
5930;DHT22;2990;48.746;9.236;2024-01-30T16:06:42;9.50;1.00
5930;DHT22;2990;48.746;9.236;2024-01-30T16:09:08;9.40;1.00
5930;DHT22;2990;48.746;9.236;2024-01-30T16:11:36;9.40;1.00
5930;DHT22;2990;48.746;9.236;2024-01-30T16:14:02;9.30;1.00
5930;DHT22;2990;48.746;9.236;2024-01-30T16:16:27;9.30;1.00